Time;durP1;ratioP1;P1;durP2;ratioP2;P2;SDS_P1;SDS_P2;PMS_P1;PMS_P2;Temp;Humidity;BMP_temperature;BMP_pressure;BME280_temperature;BME280_humidity;BME280_pressure;Samples;Min_cycle;Max_cycle;Signal;HPM_P1;HPM_P2
2023/11/01 00:02:42;;;;;;;6.05;2.03;;;8.50;99.90;;;;;;4984578;28;20035;-86
2023/11/01 00:05:32;;;;;;;6.55;1.88;;;8.60;99.90;;;;;;4984514;28;20038;-86
2023/11/01 00:08:19;;;;;;;4.20;2.30;;;8.50;99.90;;;;;;4994537;28;20053;-87
2023/11/01 00:11:06;;;;;;;4.53;1.70;;;8.40;99.90;;;;;;5022848;28;20240;-87
2023/11/01 00:13:54;;;;;;;6.65;2.20;;;8.40;99.90;;;;;;5003594;28;20050;-87
2023/11/01 00:16:43;;;;;;;7.72;1.88;;;8.40;99.90;;;;;;4986389;28;20047;-86
2023/11/01 00:19:33;;;;;;;9.25;2.47;;;8.40;99.90;;;;;;4997744;28;20050;-87
2023/11/01 00:22:23;;;;;;;4.72;1.88;;;8.40;99.90;;;;;;4997279;28;20039;-86
2023/11/01 00:25:10;;;;;;;4.13;2.22;;;8.40;99.90;;;;;;4979590;28;20081;-86
2023/11/01 00:27:57;;;;;;;9.00;2.63;;;8.40;99.90;;;;;;4986299;28;20461;-78
2023/11/01 00:30:44;;;;;;;5.32;2.08;;;8.40;99.90;;;;;;4982931;28;20073;-83
2023/11/01 00:33:32;;;;;;;4.32;1.73;;;8.40;99.90;;;;;;4992092;28;20058;-85
2023/11/01 00:36:19;;;;;;;6.93;1.48;;;8.50;99.90;;;;;;4977003;28;20053;-87
2023/11/01 00:39:07;;;;;;;4.78;1.45;;;8.60;99.90;;;;;;5021497;28;20067;-79
2023/11/01 00:41:56;;;;;;;5.18;1.88;;;8.60;99.90;;;;;;4998488;28;20043;-84
2023/11/01 00:44:46;;;;;;;8.70;2.03;;;8.70;99.90;;;;;;5013493;28;20074;-88
2023/11/01 00:47:36;;;;;;;7.20;2.10;;;8.70;99.90;;;;;;5037129;28;20699;-87
2023/11/01 00:50:25;;;;;;;6.53;2.05;;;8.80;99.90;;;;;;4985652;28;20366;-85
2023/11/01 00:53:13;;;;;;;7.57;1.67;;;8.70;99.90;;;;;;4990031;28;20096;-87
2023/11/01 00:56:00;;;;;;;5.90;1.73;;;8.70;99.90;;;;;;5026471;28;20362;-86
2023/11/01 00:58:49;;;;;;;4.18;1.80;;;8.70;99.90;;;;;;5014732;28;20035;-87
2023/11/01 01:01:39;;;;;;;4.65;1.33;;;8.60;99.90;;;;;;4996638;28;20102;-86
2023/11/01 01:04:29;;;;;;;6.45;1.83;;;8.70;99.90;;;;;;4990206;28;20069;-87
2023/11/01 01:07:16;;;;;;;3.80;1.90;;;8.70;99.90;;;;;;5031281;28;20139;-84
2023/11/01 01:10:04;;;;;;;7.80;2.25;;;8.70;99.90;;;;;;4981413;28;20344;-87
2023/11/01 01:12:53;;;;;;;5.30;1.55;;;8.80;99.90;;;;;;5009982;28;20309;-80
2023/11/01 01:15:50;;;;;;;8.75;2.45;;;8.70;99.90;;;;;;5036337;28;20068;-87
2023/11/01 01:18:39;;;;;;;10.88;2.00;;;8.70;99.90;;;;;;4978711;28;20054;-87
2023/11/01 01:21:26;;;;;;;6.57;1.80;;;8.80;99.90;;;;;;4997055;28;20462;-87
2023/11/01 01:24:14;;;;;;;6.57;1.95;;;8.70;99.90;;;;;;5021090;28;20062;-87
2023/11/01 01:27:01;;;;;;;6.30;1.88;;;8.60;99.90;;;;;;4986691;28;20043;-85
2023/11/01 01:29:49;;;;;;;6.05;1.63;;;8.50;99.90;;;;;;4982353;28;20473;-87
2023/11/01 01:32:36;;;;;;;8.10;1.70;;;8.50;99.90;;;;;;4975067;28;20061;-88
2023/11/01 01:35:24;;;;;;;6.47;2.00;;;8.40;99.90;;;;;;4979615;28;20057;-85
2023/11/01 01:38:11;;;;;;;4.03;1.75;;;8.40;99.90;;;;;;5057839;28;20046;-85
2023/11/01 01:40:58;;;;;;;6.28;1.90;;;8.30;99.90;;;;;;5017729;28;20463;-86
2023/11/01 01:43:48;;;;;;;6.63;2.05;;;8.30;99.90;;;;;;5006608;28;20157;-87
2023/11/01 01:46:36;;;;;;;9.27;2.35;;;8.30;99.90;;;;;;4986802;28;20100;-84
2023/11/01 01:49:24;;;;;;;5.30;1.55;;;8.20;99.90;;;;;;4988625;28;20055;-85
2023/11/01 01:52:23;;;;;;;8.13;2.15;;;8.20;99.90;;;;;;5044613;28;20044;-81
2023/11/01 01:55:11;;;;;;;6.95;2.08;;;8.20;99.90;;;;;;5005319;28;20097;-85
2023/11/01 01:57:59;;;;;;;6.82;2.13;;;8.20;99.90;;;;;;4980839;28;20034;-87
2023/11/01 02:00:48;;;;;;;7.25;1.88;;;8.10;99.90;;;;;;4981541;28;20046;-81
2023/11/01 02:03:36;;;;;;;5.75;2.00;;;8.10;99.90;;;;;;4984819;28;20047;-85
2023/11/01 02:06:24;;;;;;;5.72;1.98;;;8.10;99.90;;;;;;4984345;28;20115;-87
2023/11/01 02:09:15;;;;;;;3.75;2.08;;;8.10;99.90;;;;;;4989954;28;20049;-86
2023/11/01 02:12:03;;;;;;;7.47;2.22;;;8.10;99.90;;;;;;5031733;28;20873;-79
2023/11/01 02:14:50;;;;;;;5.80;2.10;;;8.10;99.90;;;;;;4990865;28;20466;-86
2023/11/01 02:17:39;;;;;;;6.95;1.98;;;8.00;99.90;;;;;;4976507;28;20460;-85
2023/11/01 02:20:29;;;;;;;5.03;2.13;;;8.00;99.90;;;;;;4984443;28;20057;-84
2023/11/01 02:23:17;;;;;;;5.28;2.50;;;7.90;99.90;;;;;;4983862;28;20038;-87
2023/11/01 02:26:04;;;;;;;10.88;2.65;;;7.90;99.90;;;;;;4966518;28;20054;-87
2023/11/01 02:28:57;;;;;;;8.93;2.22;;;7.90;99.90;;;;;;4980684;28;20046;-85
2023/11/01 02:31:46;;;;;;;8.85;2.47;;;8.00;99.90;;;;;;4986016;28;20507;-87
2023/11/01 02:34:34;;;;;;;11.70;3.00;;;7.90;99.90;;;;;;5041602;28;20053;-85
2023/11/01 02:37:21;;;;;;;7.05;2.15;;;7.90;99.90;;;;;;4999950;28;20053;-86
2023/11/01 02:40:09;;;;;;;7.57;2.28;;;7.90;99.90;;;;;;4976156;28;20088;-81
2023/11/01 02:42:56;;;;;;;11.70;2.25;;;7.90;99.90;;;;;;5025586;28;20092;-81
2023/11/01 02:45:47;;;;;;;10.18;2.08;;;8.00;99.90;;;;;;4999804;28;20491;-86
2023/11/01 02:48:34;;;;;;;10.70;2.45;;;7.90;99.90;;;;;;4985315;28;20134;-87
2023/11/01 02:51:23;;;;;;;11.80;2.60;;;7.90;99.90;;;;;;4985683;28;20050;-80
2023/11/01 02:54:11;;;;;;;8.38;2.22;;;7.90;99.90;;;;;;4993137;28;20458;-87
2023/11/01 02:56:58;;;;;;;4.57;2.08;;;8.00;99.90;;;;;;4989303;28;20053;-87
2023/11/01 02:59:47;;;;;;;8.25;1.92;;;8.00;99.90;;;;;;4983059;28;20058;-85
2023/11/01 03:02:36;;;;;;;8.52;1.85;;;8.10;99.90;;;;;;4985250;28;20327;-85
2023/11/01 03:05:27;;;;;;;4.35;1.73;;;8.10;99.90;;;;;;5015649;28;20046;-87
2023/11/01 03:08:15;;;;;;;4.22;1.85;;;8.10;99.90;;;;;;4990840;28;20057;-81
2023/11/01 03:11:03;;;;;;;1.83;1.67;;;8.20;99.90;;;;;;5031368;28;20054;-87
2023/11/01 03:13:51;;;;;;;6.05;1.92;;;8.20;99.90;;;;;;4978715;28;20047;-87
2023/11/01 03:16:38;;;;;;;7.53;1.70;;;8.20;99.90;;;;;;5019697;28;20036;-88
2023/11/01 03:19:25;;;;;;;9.07;2.08;;;8.30;99.90;;;;;;4988138;28;20059;-88
2023/11/01 03:22:12;;;;;;;5.95;1.90;;;8.20;99.90;;;;;;5025004;28;20053;-83
2023/11/01 03:25:00;;;;;;;4.55;1.75;;;8.20;99.90;;;;;;4987479;28;20053;-87
2023/11/01 03:27:47;;;;;;;7.13;1.80;;;8.20;99.90;;;;;;4983937;28;20053;-79
2023/11/01 03:30:35;;;;;;;5.07;1.50;;;8.10;99.90;;;;;;4995690;28;20069;-85
2023/11/01 03:33:22;;;;;;;6.05;1.85;;;8.10;99.90;;;;;;5071302;28;20055;-87
2023/11/01 03:36:09;;;;;;;10.95;1.98;;;8.10;99.90;;;;;;4966141;28;20175;-87
2023/11/01 03:38:57;;;;;;;4.00;1.90;;;8.00;99.90;;;;;;4990872;28;20057;-88
2023/11/01 03:41:44;;;;;;;7.28;2.20;;;7.90;99.90;;;;;;4998752;28;20046;-87
2023/11/01 03:44:34;;;;;;;8.10;2.10;;;7.90;99.90;;;;;;4973317;28;20049;-88
2023/11/01 03:47:22;;;;;;;6.03;1.90;;;7.80;99.90;;;;;;5034583;28;20061;-87
2023/11/01 03:50:11;;;;;;;3.60;1.92;;;7.80;99.90;;;;;;5020327;28;20135;-86
2023/11/01 03:52:59;;;;;;;5.30;1.65;;;7.80;99.90;;;;;;4994713;28;20065;-86
2023/11/01 03:55:49;;;;;;;5.38;2.08;;;7.80;99.90;;;;;;5018687;28;20119;-85
2023/11/01 03:58:36;;;;;;;7.78;2.25;;;7.80;99.90;;;;;;4984626;28;20469;-82
2023/11/01 04:01:23;;;;;;;3.42;1.55;;;7.80;99.90;;;;;;5005717;28;20126;-87
2023/11/01 04:04:11;;;;;;;6.00;1.83;;;7.60;99.90;;;;;;4981184;28;20108;-80
2023/11/01 04:07:00;;;;;;;4.22;2.00;;;7.40;99.90;;;;;;4990308;28;20050;-88
2023/11/01 04:09:48;;;;;;;9.27;2.03;;;7.30;99.90;;;;;;4966021;28;20038;-87
2023/11/01 04:12:35;;;;;;;6.03;2.10;;;7.10;99.90;;;;;;5004379;28;20044;-81
2023/11/01 04:15:22;;;;;;;10.43;2.28;;;6.90;99.90;;;;;;5028837;28;20096;-85
2023/11/01 04:18:12;;;;;;;5.95;2.13;;;6.80;99.90;;;;;;4982193;28;20054;-87
2023/11/01 04:20:59;;;;;;;6.10;2.33;;;6.60;99.90;;;;;;5007442;28;20360;-88
2023/11/01 04:23:48;;;;;;;4.80;2.22;;;6.60;99.90;;;;;;4987496;28;20054;-86
2023/11/01 04:26:36;;;;;;;6.53;2.83;;;6.40;99.90;;;;;;5025195;28;20042;-88
2023/11/01 04:29:26;;;;;;;6.60;2.97;;;6.30;99.90;;;;;;4979915;28;20082;-87
2023/11/01 04:32:14;;;;;;;7.75;2.60;;;6.20;99.90;;;;;;4986798;28;20374;-87
2023/11/01 04:35:09;;;;;;;7.10;2.50;;;6.10;99.90;;;;;;4982379;28;20125;-81
2023/11/01 04:37:56;;;;;;;7.82;2.78;;;6.10;99.90;;;;;;4974625;28;20503;-86
2023/11/01 04:40:46;;;;;;;6.05;2.42;;;6.10;99.90;;;;;;4987440;28;20483;-87
2023/11/01 04:43:35;;;;;;;7.70;2.38;;;6.10;99.90;;;;;;4988768;28;20046;-87
2023/11/01 04:46:22;;;;;;;8.32;2.42;;;6.10;99.90;;;;;;4976828;28;20046;-86
2023/11/01 04:49:12;;;;;;;5.95;2.42;;;6.30;99.90;;;;;;4978470;28;20505;-81
2023/11/01 04:51:59;;;;;;;8.45;2.40;;;6.60;99.90;;;;;;4974403;28;20070;-87
2023/11/01 04:54:47;;;;;;;7.15;2.50;;;6.60;99.90;;;;;;4992079;28;20066;-86
2023/11/01 04:57:34;;;;;;;3.15;2.15;;;6.60;99.90;;;;;;4970211;28;20203;-80
2023/11/01 05:00:21;;;;;;;12.77;2.67;;;6.70;99.90;;;;;;4985935;28;20070;-77
2023/11/01 05:03:09;;;;;;;12.05;2.65;;;6.90;99.90;;;;;;5015856;28;20044;-84
2023/11/01 05:05:58;;;;;;;8.18;2.10;;;7.10;99.90;;;;;;5015304;28;20490;-88
2023/11/01 05:08:45;;;;;;;5.55;1.90;;;7.30;99.90;;;;;;5042925;28;20482;-89
2023/11/01 05:11:33;;;;;;;7.60;1.77;;;7.50;99.90;;;;;;5055442;28;20702;-78
2023/11/01 05:14:21;;;;;;;8.15;1.63;;;7.60;99.90;;;;;;5003435;28;20040;-86
2023/11/01 05:17:08;;;;;;;4.10;1.70;;;7.70;99.90;;;;;;4980300;28;20060;-87
2023/11/01 05:19:55;;;;;;;5.47;2.03;;;7.60;99.90;;;;;;4959835;28;20055;-88
2023/11/01 05:22:43;;;;;;;6.78;1.65;;;7.60;99.90;;;;;;4975942;28;20066;-86
2023/11/01 05:25:32;;;;;;;4.50;1.55;;;7.60;99.90;;;;;;4989684;28;20073;-87
2023/11/01 05:28:19;;;;;;;5.88;1.80;;;7.60;99.90;;;;;;4990656;28;20054;-87
2023/11/01 05:31:07;;;;;;;3.03;2.10;;;7.60;99.90;;;;;;4979002;28;20053;-87
2023/11/01 05:33:54;;;;;;;3.67;2.03;;;7.50;99.90;;;;;;4985203;28;20065;-79
2023/11/01 05:36:41;;;;;;;2.88;1.98;;;7.50;99.90;;;;;;5015405;28;20457;-87
2023/11/01 05:39:29;;;;;;;6.28;1.70;;;7.40;99.90;;;;;;5001794;28;20035;-87
2023/11/01 05:42:17;;;;;;;9.80;1.88;;;7.40;99.90;;;;;;4979967;28;20309;-87
2023/11/01 05:45:04;;;;;;;5.82;2.22;;;7.50;99.90;;;;;;4982943;28;20050;-87
2023/11/01 05:47:52;;;;;;;6.10;1.63;;;7.40;99.90;;;;;;5000170;28;20059;-88
2023/11/01 05:50:43;;;;;;;5.65;1.90;;;7.40;99.90;;;;;;4990572;28;20046;-86
2023/11/01 05:53:31;;;;;;;5.28;2.17;;;7.40;99.90;;;;;;5010550;28;20122;-86
2023/11/01 05:56:20;;;;;;;4.97;1.90;;;7.40;99.90;;;;;;4991832;28;20042;-87
2023/11/01 05:59:09;;;;;;;4.70;1.90;;;7.30;99.90;;;;;;4997501;28;20054;-87
2023/11/01 06:01:56;;;;;;;1.83;1.73;;;7.20;99.90;;;;;;5015770;28;20038;-86
2023/11/01 06:04:44;;;;;;;3.55;2.05;;;7.20;99.90;;;;;;4986986;28;20118;-82
2023/11/01 06:07:32;;;;;;;3.90;2.30;;;7.10;99.90;;;;;;5001402;28;20054;-86
2023/11/01 06:10:19;;;;;;;4.15;1.95;;;7.00;99.90;;;;;;5007320;28;20082;-78
2023/11/01 06:13:10;;;;;;;4.38;2.25;;;6.80;99.90;;;;;;4992472;28;20102;-84
2023/11/01 06:16:04;;;;;;;6.63;2.40;;;6.60;99.90;;;;;;4992521;28;20400;-86
2023/11/01 06:18:51;;;;;;;6.38;2.88;;;6.50;99.90;;;;;;5040434;28;20125;-86
2023/11/01 06:21:41;;;;;;;6.65;2.72;;;6.40;99.90;;;;;;5005894;28;20065;-91
2023/11/01 06:24:28;;;;;;;8.15;2.00;;;6.40;99.90;;;;;;5041050;28;20050;-88
2023/11/01 06:27:15;;;;;;;6.35;2.03;;;6.50;99.90;;;;;;5069071;28;20062;-89
2023/11/01 06:30:08;;;;;;;3.28;1.80;;;6.50;99.90;;;;;;5060053;28;20054;-89
2023/11/01 06:32:55;;;;;;;4.43;1.85;;;6.60;99.90;;;;;;4987012;28;20133;-87
2023/11/01 06:35:43;;;;;;;4.75;1.90;;;6.70;99.90;;;;;;4981425;28;20054;-90
2023/11/01 06:38:30;;;;;;;4.20;1.50;;;6.90;99.90;;;;;;4993046;28;20043;-88
2023/11/01 06:41:20;;;;;;;7.70;2.33;;;7.10;99.90;;;;;;5013963;28;20054;-89
2023/11/01 06:44:10;;;;;;;9.18;1.95;;;7.20;99.90;;;;;;4994559;28;20042;-90
2023/11/01 06:46:57;;;;;;;4.78;1.52;;;7.30;99.90;;;;;;4986667;28;20050;-88
2023/11/01 06:49:45;;;;;;;6.53;2.88;;;7.40;99.90;;;;;;4981634;28;20123;-89
2023/11/01 06:52:32;;;;;;;7.10;2.33;;;7.50;99.90;;;;;;4997820;28;20137;-89
2023/11/01 06:55:19;;;;;;;34.90;15.20;;;7.50;99.90;;;;;;4980230;28;20145;-86
2023/11/01 06:58:06;;;;;;;10.90;5.22;;;7.60;99.90;;;;;;4982192;28;20128;-82
2023/11/01 07:00:54;;;;;;;2.42;1.55;;;7.70;99.90;;;;;;4983901;28;20046;-88
2023/11/01 07:03:41;;;;;;;3.65;2.03;;;7.70;99.90;;;;;;4981861;28;20088;-86
2023/11/01 07:06:29;;;;;;;7.55;2.08;;;7.80;99.90;;;;;;4988818;28;20057;-84
2023/11/01 07:09:19;;;;;;;5.05;1.80;;;7.70;99.90;;;;;;4984357;28;20047;-82
2023/11/01 07:12:06;;;;;;;2.55;1.48;;;7.80;99.90;;;;;;4991368;28;20043;-89
2023/11/01 07:14:56;;;;;;;7.38;1.92;;;8.00;99.90;;;;;;4980839;28;20054;-87
2023/11/01 07:17:43;;;;;;;8.80;1.55;;;8.20;99.90;;;;;;4993179;28;20175;-89
2023/11/01 07:20:31;;;;;;;4.05;1.40;;;8.40;84.20;;;;;;4994093;28;20176;-87
2023/11/01 07:23:20;;;;;;;2.53;1.30;;;8.50;3.10;;;;;;4982468;28;20510;-88
2023/11/01 07:26:08;;;;;;;6.22;1.60;;;8.60;1.00;;;;;;4991975;28;20046;-82
2023/11/01 07:28:55;;;;;;;3.25;1.42;;;8.60;1.00;;;;;;4995200;28;20557;-86
2023/11/01 07:31:45;;;;;;;4.25;1.45;;;8.70;99.90;;;;;;5041625;28;20127;-88
2023/11/01 07:34:32;;;;;;;2.10;1.15;;;8.80;99.90;;;;;;5017429;28;20480;-86
2023/11/01 07:37:20;;;;;;;1.70;1.10;;;9.00;30.40;;;;;;5006080;28;20070;-78
2023/11/01 07:40:10;;;;;;;2.65;1.20;;;9.00;99.90;;;;;;4974772;28;20039;-89
2023/11/01 07:42:57;;;;;;;4.90;1.50;;;9.00;99.90;;;;;;5030333;28;20042;-88
2023/11/01 07:45:45;;;;;;;3.72;1.15;;;9.10;99.90;;;;;;5005275;28;20508;-81
2023/11/01 07:48:33;;;;;;;3.03;1.30;;;9.20;1.00;;;;;;4998964;28;20082;-83
2023/11/01 07:51:25;;;;;;;4.00;1.30;;;9.30;99.90;;;;;;5040757;28;20474;-89
2023/11/01 07:54:14;;;;;;;4.38;1.20;;;9.40;1.00;;;;;;4979485;28;20154;-87
2023/11/01 07:57:01;;;;;;;5.60;1.30;;;9.60;99.90;;;;;;4974156;28;20204;-88
2023/11/01 07:59:49;;;;;;;2.13;1.23;;;9.80;1.00;;;;;;4987929;28;20062;-88
2023/11/01 08:02:36;;;;;;;1.95;1.10;;;10.00;99.90;;;;;;4990238;28;20051;-87
2023/11/01 08:05:27;;;;;;;3.33;1.30;;;10.10;1.00;;;;;;4972977;28;20049;-87
2023/11/01 08:08:14;;;;;;;5.38;1.48;;;10.10;99.90;;;;;;4990137;28;20053;-88
2023/11/01 08:11:02;;;;;;;3.60;1.33;;;10.10;1.00;;;;;;5034191;28;20209;-88
2023/11/01 08:13:49;;;;;;;3.58;1.30;;;10.20;1.00;;;;;;5007099;28;20123;-87
2023/11/01 08:16:36;;;;;;;2.92;1.20;;;10.30;99.90;;;;;;5060005;28;20042;-88
2023/11/01 08:19:25;;;;;;;4.38;1.35;;;10.50;68.30;;;;;;5024115;28;20042;-86
2023/11/01 08:22:13;;;;;;;2.92;1.40;;;10.70;99.90;;;;;;5006811;28;20051;-85
2023/11/01 08:25:00;;;;;;;4.60;1.13;;;10.90;99.90;;;;;;4981985;28;20339;-87
2023/11/01 08:27:48;;;;;;;2.80;1.00;;;11.10;72.80;;;;;;4989640;28;20046;-87
2023/11/01 08:30:35;;;;;;;3.45;1.13;;;11.10;1.00;;;;;;5016628;28;20117;-79
2023/11/01 08:33:25;;;;;;;7.95;1.55;;;11.20;99.90;;;;;;4987578;28;20561;-89
2023/11/01 08:36:15;;;;;;;3.78;1.15;;;11.50;99.90;;;;;;5000537;28;20042;-88
2023/11/01 08:39:02;;;;;;;3.97;1.85;;;11.70;1.00;;;;;;4979074;28;20474;-89
2023/11/01 08:41:50;;;;;;;4.07;1.50;;;11.80;99.90;;;;;;4966846;28;20344;-88
2023/11/01 08:44:38;;;;;;;5.53;1.73;;;12.00;99.90;;;;;;4988234;28;20050;-87
2023/11/01 08:47:40;;;;;;;3.83;1.00;;;12.40;99.90;;;;;;4996248;28;20700;-89
2023/11/01 08:50:27;;;;;;;5.47;1.37;;;12.90;1.00;;;;;;5038009;28;20050;-89
2023/11/01 08:53:15;;;;;;;3.15;1.40;;;13.20;99.90;;;;;;4985884;28;20297;-88
2023/11/01 08:56:03;;;;;;;1.02;0.88;;;13.20;99.90;;;;;;4988991;28;20386;-88
2023/11/01 08:58:52;;;;;;;2.55;1.13;;;13.40;99.90;;;;;;4986407;28;20039;-89
2023/11/01 09:01:40;;;;;;;3.83;1.10;;;13.20;99.90;;;;;;4985113;28;20053;-89
2023/11/01 09:04:28;;;;;;;4.07;0.80;;;13.20;99.90;;;;;;4991830;28;20104;-87
2023/11/01 09:07:15;;;;;;;2.88;0.90;;;13.30;61.20;;;;;;4981135;28;20050;-89
2023/11/01 09:10:07;;;;;;;2.95;0.90;;;13.50;2.80;;;;;;4991958;28;20395;-82
2023/11/01 09:12:55;;;;;;;2.85;1.08;;;13.70;1.00;;;;;;4992993;28;20141;-87
2023/11/01 09:15:42;;;;;;;3.33;0.85;;;14.30;1.00;;;;;;4989359;28;20562;-88
2023/11/01 09:18:30;;;;;;;3.05;0.82;;;14.80;1.00;;;;;;4974774;28;20042;-82
2023/11/01 09:21:19;;;;;;;2.00;1.00;;;14.90;1.00;;;;;;4997704;28;20501;-79
2023/11/01 09:24:07;;;;;;;2.05;0.80;;;14.90;1.00;;;;;;5043655;28;20121;-88
2023/11/01 09:26:57;;;;;;;2.05;0.80;;;15.20;1.00;;;;;;4976831;28;20134;-88
2023/11/01 09:29:44;;;;;;;1.88;0.88;;;15.50;1.00;;;;;;4971607;28;20344;-87
2023/11/01 09:32:32;;;;;;;3.28;0.85;;;15.60;1.00;;;;;;4992672;28;20065;-88
2023/11/01 09:35:19;;;;;;;2.22;1.00;;;15.10;99.90;;;;;;4989033;28;20042;-87
2023/11/01 09:38:08;;;;;;;1.00;0.80;;;14.80;99.90;;;;;;5007486;28;20044;-86
2023/11/01 09:40:57;;;;;;;3.30;0.90;;;14.70;99.90;;;;;;4966216;28;20125;-85
2023/11/01 09:43:47;;;;;;;3.05;0.88;;;14.80;99.90;;;;;;4988860;28;20139;-87
2023/11/01 09:46:35;;;;;;;3.40;0.88;;;15.00;99.90;;;;;;4984666;28;20073;-88
2023/11/01 09:49:23;;;;;;;2.45;1.20;;;15.20;99.90;;;;;;4982159;28;20050;-87
2023/11/01 09:52:11;;;;;;;6.40;1.02;;;15.90;99.90;;;;;;4984088;28;20048;-87
2023/11/01 09:55:00;;;;;;;2.88;0.80;;;15.50;99.90;;;;;;4989965;28;20053;-82
2023/11/01 09:57:48;;;;;;;1.73;0.80;;;15.50;99.90;;;;;;4987876;28;20065;-87
2023/11/01 10:00:36;;;;;;;4.05;0.90;;;16.10;99.90;;;;;;4979857;28;20121;-88
2023/11/01 10:03:23;;;;;;;1.50;0.80;;;16.40;99.90;;;;;;5002679;28;20043;-86
2023/11/01 10:06:12;;;;;;;4.35;1.17;;;16.60;99.90;;;;;;5010446;28;20127;-80
2023/11/01 10:09:02;;;;;;;3.67;0.80;;;16.70;99.90;;;;;;4991993;28;20207;-86
2023/11/01 10:11:50;;;;;;;2.22;0.98;;;17.20;99.90;;;;;;4988022;28;20043;-88
2023/11/01 10:14:40;;;;;;;2.55;1.05;;;17.50;1.00;;;;;;4989400;28;20407;-89
2023/11/01 10:17:28;;;;;;;1.50;1.00;;;17.40;1.00;;;;;;4991779;28;20272;-86
2023/11/01 10:20:27;;;;;;;3.38;0.80;;;16.50;1.00;;;;;;4968550;28;20044;-87
2023/11/01 10:23:18;;;;;;;2.75;0.52;;;16.10;1.00;;;;;;4978180;28;20043;-87
2023/11/01 10:26:06;;;;;;;1.35;0.68;;;16.00;1.00;;;;;;5019067;28;20121;-87
2023/11/01 10:28:56;;;;;;;4.13;1.00;;;15.60;1.00;;;;;;5015157;28;20132;-87
2023/11/01 10:31:59;;;;;;;1.70;0.60;;;15.80;1.00;;;;;;5034829;28;20116;-87
2023/11/01 10:35:12;;;;;;;3.58;0.80;;;16.30;1.00;;;;;;4993975;28;20042;-86
2023/11/01 10:38:01;;;;;;;2.55;0.80;;;16.70;1.00;;;;;;4985032;28;20458;-88
2023/11/01 10:40:51;;;;;;;3.47;0.82;;;16.90;45.80;;;;;;5056758;28;20038;-87
2023/11/01 10:43:41;;;;;;;3.22;0.90;;;16.40;40.80;;;;;;4995454;28;20046;-88
2023/11/01 10:46:28;;;;;;;3.28;1.15;;;15.70;99.90;;;;;;4978736;28;20381;-89
2023/11/01 10:49:16;;;;;;;2.40;1.00;;;15.20;99.90;;;;;;4983279;28;20061;-88
2023/11/01 10:52:05;;;;;;;2.42;1.00;;;15.00;1.00;;;;;;4991283;28;20046;-87
2023/11/01 10:54:55;;;;;;;4.65;1.60;;;14.80;1.00;;;;;;4988663;28;20055;-81
2023/11/01 10:57:43;;;;;;;12.73;2.83;;;14.70;99.90;;;;;;4977742;28;20125;-88
2023/11/01 11:00:41;;;;;;;7.03;1.95;;;14.80;99.90;;;;;;4993028;28;20446;-87
2023/11/01 11:03:43;;;;;;;3.05;1.45;;;15.60;99.90;;;;;;5077666;28;20044;-87
2023/11/01 11:06:39;;;;;;;1.85;0.95;;;16.30;1.00;;;;;;4990377;28;20103;-81
2023/11/01 11:09:27;;;;;;;2.78;0.90;;;16.70;1.00;;;;;;5007165;28;20046;-80
2023/11/01 11:12:20;;;;;;;1.23;0.70;;;16.70;1.90;;;;;;5002768;28;20439;-85
2023/11/01 11:15:07;;;;;;;;;;;16.70;1.00;;;;;;4971585;28;20058;-88
2023/11/01 11:18:07;;;;;;;1.58;1.00;;;16.70;1.00;;;;;;4994760;28;20408;-87
2023/11/01 11:20:58;;;;;;;3.80;1.05;;;16.70;1.00;;;;;;5028558;28;20066;-86
2023/11/01 11:23:48;;;;;;;2.38;1.00;;;16.50;99.90;;;;;;4989516;28;20046;-85
2023/11/01 11:26:38;;;;;;;3.67;1.02;;;15.60;1.00;;;;;;4982572;28;20070;-86
2023/11/01 11:29:45;;;;;;;2.17;1.00;;;15.30;99.90;;;;;;4990025;28;20066;-86
2023/11/01 11:32:33;;;;;;;4.13;1.30;;;15.10;1.00;;;;;;4987471;28;20122;-87
2023/11/01 11:35:23;;;;;;;2.47;1.10;;;15.20;1.00;;;;;;4995492;28;20054;-86
2023/11/01 11:38:34;;;;;;;3.47;2.10;;;15.90;1.00;;;;;;4993716;28;20034;-86
2023/11/01 11:41:22;;;;;;;4.88;2.05;;;17.20;99.90;;;;;;4981853;28;20508;-85
2023/11/01 11:44:13;;;;;;;6.78;2.03;;;17.30;99.90;;;;;;4992224;28;20461;-87
2023/11/01 11:47:29;;;;;;;9.07;1.30;;;16.80;99.90;;;;;;4982248;28;20072;-85
2023/11/01 11:50:19;;;;;;;9.77;3.58;;;16.90;99.90;;;;;;4987715;28;20042;-88
2023/11/01 11:53:07;;;;;;;12.45;5.40;;;17.30;99.90;;;;;;5041430;28;20204;-87
2023/11/01 11:55:57;;;;;;;1.83;1.30;;;17.50;99.90;;;;;;4984598;28;20134;-86
2023/11/01 11:58:45;;;;;;;4.95;2.80;;;17.30;99.90;;;;;;4985051;28;20466;-86
2023/11/01 12:01:33;;;;;;;3.03;0.90;;;17.40;99.90;;;;;;4984451;28;20039;-85
2023/11/01 12:04:26;;;;;;;4.38;1.00;;;17.20;99.90;;;;;;5022932;28;20047;-83
2023/11/01 12:07:21;;;;;;;3.53;1.25;;;17.00;99.90;;;;;;4986893;28;20050;-86
2023/11/01 12:10:10;;;;;;;2.17;1.20;;;16.40;99.90;;;;;;4990084;28;20046;-85
2023/11/01 12:12:57;;;;;;;2.97;0.93;;;16.30;99.90;;;;;;4984904;28;20074;-82
2023/11/01 12:15:45;;;;;;;5.85;0.80;;;16.00;99.90;;;;;;5041656;28;20073;-86
2023/11/01 12:18:33;;;;;;;1.85;0.70;;;15.60;99.90;;;;;;4994303;28;20389;-87
2023/11/01 12:21:20;;;;;;;2.00;0.90;;;15.40;99.90;;;;;;4975362;28;20142;-80
2023/11/01 12:24:10;;;;;;;2.53;0.90;;;15.20;99.90;;;;;;4993100;28;20088;-81
2023/11/01 12:26:57;;;;;;;2.15;0.70;;;15.00;99.90;;;;;;5006617;28;20044;-88
2023/11/01 12:29:50;;;;;;;3.22;0.98;;;14.90;99.90;;;;;;4988517;28;20046;-87
2023/11/01 12:32:41;;;;;;;1.95;0.88;;;14.80;99.90;;;;;;5042416;28;20179;-86
2023/11/01 12:35:29;;;;;;;2.35;1.10;;;14.60;99.90;;;;;;5021252;28;20320;-82
2023/11/01 12:38:19;;;;;;;2.45;1.00;;;14.60;99.90;;;;;;5013329;28;20046;-86
2023/11/01 12:41:10;;;;;;;3.10;1.00;;;14.70;99.90;;;;;;4988348;28;20046;-88
2023/11/01 12:43:57;;;;;;;2.60;1.08;;;14.70;99.90;;;;;;4966203;28;20382;-85
2023/11/01 12:46:44;;;;;;;1.25;1.00;;;14.80;99.90;;;;;;4985643;28;20042;-83
2023/11/01 12:49:32;;;;;;;3.25;1.00;;;14.80;99.90;;;;;;4973218;28;20601;-82
2023/11/01 12:52:19;;;;;;;2.35;1.23;;;14.80;99.90;;;;;;5016955;28;20098;-80
2023/11/01 12:55:09;;;;;;;2.72;1.02;;;14.80;99.90;;;;;;4972800;28;20054;-85
2023/11/01 12:57:59;;;;;;;1.05;0.93;;;14.80;99.90;;;;;;4999621;28;20053;-85
2023/11/01 13:00:47;;;;;;;1.35;0.98;;;14.80;99.90;;;;;;4992386;28;20038;-80
2023/11/01 13:03:36;;;;;;;1.17;0.70;;;14.80;99.90;;;;;;5040702;28;20066;-85
2023/11/01 13:06:27;;;;;;;3.33;1.45;;;14.90;99.90;;;;;;4990913;28;20133;-83
2023/11/01 13:09:17;;;;;;;4.57;1.25;;;14.90;99.90;;;;;;4992848;28;20054;-85
2023/11/01 13:12:08;;;;;;;2.72;0.95;;;14.90;99.90;;;;;;5004096;28;20047;-84
2023/11/01 13:15:01;;;;;;;1.00;0.75;;;14.90;99.90;;;;;;4979688;28;20111;-80
2023/11/01 13:17:54;;;;;;;1.75;0.77;;;14.80;99.90;;;;;;4986698;28;20103;-84
2023/11/01 13:20:43;;;;;;;4.38;1.25;;;14.70;99.90;;;;;;5011159;28;20122;-84
2023/11/01 13:23:30;;;;;;;2.17;1.27;;;14.60;99.90;;;;;;5025094;28;20050;-85
2023/11/01 13:26:18;;;;;;;3.55;1.13;;;14.60;99.90;;;;;;4991245;28;20078;-85
2023/11/01 13:29:06;;;;;;;1.88;0.80;;;14.50;99.90;;;;;;4987472;28;20046;-83
2023/11/01 13:31:53;;;;;;;4.60;1.00;;;14.50;99.90;;;;;;4988115;28;20073;-85
2023/11/01 13:34:41;;;;;;;2.22;0.80;;;14.50;99.90;;;;;;4985364;28;20054;-79
2023/11/01 13:37:33;;;;;;;2.60;0.75;;;14.50;99.90;;;;;;4986553;28;20360;-84
2023/11/01 13:40:20;;;;;;;1.17;0.70;;;14.50;99.90;;;;;;4983849;28;20485;-83
2023/11/01 13:43:08;;;;;;;2.53;0.88;;;14.70;99.90;;;;;;4990042;28;20305;-81
2023/11/01 13:46:01;;;;;;;1.75;0.88;;;14.70;99.90;;;;;;4977622;28;20474;-85
2023/11/01 13:48:48;;;;;;;2.30;0.93;;;14.80;99.90;;;;;;4999930;28;20042;-83
2023/11/01 13:51:36;;;;;;;1.80;0.88;;;14.80;99.90;;;;;;4982852;28;20050;-80
2023/11/01 13:54:28;;;;;;;0.70;0.52;;;14.80;99.90;;;;;;5036151;28;20371;-85
2023/11/01 13:57:20;;;;;;;0.95;0.80;;;14.80;99.90;;;;;;4982765;28;20176;-85
2023/11/01 14:00:08;;;;;;;1.75;0.85;;;14.70;99.90;;;;;;4988193;28;20461;-84
2023/11/01 14:02:59;;;;;;;1.27;0.60;;;14.50;99.90;;;;;;5001116;28;20058;-85
2023/11/01 14:05:47;;;;;;;1.25;0.70;;;14.40;99.90;;;;;;4988566;28;20128;-87
2023/11/01 14:08:35;;;;;;;1.42;0.50;;;14.40;99.90;;;;;;4990361;28;20042;-84
2023/11/01 14:11:24;;;;;;;1.92;0.65;;;14.40;99.90;;;;;;4997206;28;20459;-83
2023/11/01 14:14:12;;;;;;;1.92;0.63;;;14.30;99.90;;;;;;4977404;28;20491;-84
2023/11/01 14:16:59;;;;;;;2.17;0.70;;;14.20;99.90;;;;;;5001579;28;20052;-84
2023/11/01 14:19:47;;;;;;;11.05;1.85;;;14.10;99.90;;;;;;4988677;28;20135;-87
2023/11/01 14:22:34;;;;;;;3.10;0.90;;;14.10;99.90;;;;;;5020292;28;20050;-82
2023/11/01 14:25:24;;;;;;;1.73;0.90;;;14.10;99.90;;;;;;4986909;28;20122;-85
2023/11/01 14:28:16;;;;;;;1.63;1.10;;;14.00;99.90;;;;;;4983783;28;20050;-80
2023/11/01 14:31:04;;;;;;;;;;;13.90;99.90;;;;;;4991546;28;20057;-81
2023/11/01 14:33:53;;;;;;;2.40;0.90;;;14.00;99.90;;;;;;4970079;28;20245;-84
2023/11/01 14:36:41;;;;;;;1.23;0.80;;;13.90;99.90;;;;;;4993816;28;20104;-83
2023/11/01 14:39:29;;;;;;;2.20;1.20;;;13.80;99.90;;;;;;4984374;28;20061;-82
2023/11/01 14:42:16;;;;;;;5.32;1.35;;;13.70;99.90;;;;;;4983019;28;20039;-80
2023/11/01 14:45:07;;;;;;;1.55;0.90;;;13.70;99.90;;;;;;4983780;28;20746;-83
2023/11/01 14:47:56;;;;;;;3.65;1.10;;;13.60;99.90;;;;;;4986197;28;20050;-83